Time;durP1;ratioP1;P1;durP2;ratioP2;P2;SDS_P1;SDS_P2;PMS_P1;PMS_P2;Temp;Humidity;BMP_temperature;BMP_pressure;BME280_temperature;BME280_humidity;BME280_pressure;Samples;Min_cycle;Max_cycle;Signal;HPM_P1;HPM_P2
2021/07/30 00:00:57;;;;;;;22.75;6.25;;;;;;;14.99;69.60;101091.16;4950304;28;20030;-46
2021/07/30 00:03:22;;;;;;;15.88;6.07;;;;;;;14.95;70.39;101094.63;4958494;28;20027;-47
2021/07/30 00:05:52;;;;;;;14.45;6.72;;;;;;;14.95;70.10;101089.38;4957192;28;20498;-47
2021/07/30 00:08:18;;;;;;;14.50;5.75;;;;;;;14.96;70.00;101093.75;4949039;28;20033;-46
2021/07/30 00:10:43;;;;;;;14.63;5.65;;;;;;;14.88;70.29;101092.91;4954215;28;20082;-47
2021/07/30 00:13:08;;;;;;;13.95;6.05;;;;;;;14.87;70.39;101093.78;4957088;28;20501;-48
2021/07/30 00:15:34;;;;;;;15.60;6.18;;;;;;;14.87;70.49;101085.91;4959080;28;20058;-47
2021/07/30 00:17:59;;;;;;;17.42;6.50;;;;;;;14.80;71.43;101090.28;4956856;28;20093;-47
2021/07/30 00:20:24;;;;;;;15.65;6.18;;;;;;;14.72;71.05;101089.41;4953900;28;20023;-47
2021/07/30 00:22:50;;;;;;;15.38;6.20;;;;;;;14.74;71.52;101086.78;4953339;28;20383;-48
2021/07/30 00:25:15;;;;;;;12.65;6.40;;;;;;;14.73;71.00;101082.41;4951605;28;20038;-46
2021/07/30 00:27:42;;;;;;;15.52;5.95;;;;;;;14.70;71.03;101087.69;4954597;28;20027;-48
2021/07/30 00:30:08;;;;;;;16.65;6.43;;;;;;;14.70;71.23;101080.66;4955897;28;20035;-47
2021/07/30 00:32:33;;;;;;;19.17;6.57;;;;;;;14.67;72.29;101080.66;4953277;28;20023;-48
2021/07/30 00:35:01;;;;;;;12.40;5.93;;;;;;;14.63;72.08;101085.91;4958846;28;20077;-49
2021/07/30 00:37:26;;;;;;;12.80;6.22;;;;;;;14.63;71.29;101080.69;4952095;28;20061;-48
2021/07/30 00:39:51;;;;;;;16.15;6.30;;;;;;;14.60;71.87;101078.91;4956399;28;20101;-46
2021/07/30 00:42:17;;;;;;;15.07;6.07;;;;;;;14.60;71.50;101079.78;4957073;28;20048;-49
2021/07/30 00:44:43;;;;;;;14.23;6.03;;;;;;;14.64;71.21;101070.16;4951257;28;20140;-48
2021/07/30 00:47:08;;;;;;;17.55;6.80;;;;;;;14.66;72.52;101072.78;4956819;28;20353;-49
2021/07/30 00:49:35;;;;;;;15.27;6.30;;;;;;;14.66;72.48;101071.03;4956507;28;20045;-48
2021/07/30 00:52:00;;;;;;;16.67;6.57;;;;;;;14.69;71.74;101073.69;4954391;28;20070;-48
2021/07/30 00:54:27;;;;;;;14.88;6.03;;;;;;;14.72;71.73;101067.53;4958238;28;20119;-48
2021/07/30 00:56:53;;;;;;;13.27;5.95;;;;;;;14.75;71.46;101064.94;4956384;28;20034;-50
2021/07/30 00:59:18;;;;;;;11.88;5.72;;;;;;;14.70;71.59;101061.44;4953216;28;20042;-47
2021/07/30 01:01:44;;;;;;;12.52;5.43;;;;;;;14.68;71.67;101065.81;4966358;28;20474;-48
2021/07/30 01:04:09;;;;;;;11.10;5.50;;;;;;;14.67;71.67;101071.91;4959067;28;20038;-50
2021/07/30 01:06:35;;;;;;;12.95;5.20;;;;;;;14.64;72.06;101069.31;4950828;28;20480;-48
2021/07/30 01:09:00;;;;;;;13.10;5.40;;;;;;;14.62;71.84;101074.56;4954489;28;20506;-47
2021/07/30 01:11:25;;;;;;;10.23;4.82;;;;;;;14.57;71.91;101073.69;4953382;28;20042;-51
2021/07/30 01:13:51;;;;;;;12.15;5.95;;;;;;;14.51;72.68;101074.56;4955845;28;20111;-48
2021/07/30 01:16:16;;;;;;;13.60;6.00;;;;;;;14.48;73.16;101078.91;4957009;28;20487;-47
2021/07/30 01:18:41;;;;;;;16.42;5.88;;;;;;;14.48;73.14;101073.66;4954042;28;20464;-49
2021/07/30 01:21:23;;;;;;;13.38;6.05;;;;;;;14.45;73.09;101076.28;4955859;28;20476;-46
2021/07/30 01:23:49;;;;;;;11.60;5.05;;;;;;;14.38;73.11;101070.16;4953906;28;20035;-50
2021/07/30 01:26:15;;;;;;;12.18;5.57;;;;;;;14.34;73.30;101077.97;4957561;28;20039;-48
2021/07/30 01:28:41;;;;;;;13.82;5.80;;;;;;;14.31;73.48;101065.75;4952139;28;20034;-50
2021/07/30 01:31:06;;;;;;;13.13;5.25;;;;;;;14.26;73.50;101058.75;4957889;28;20029;-47
2021/07/30 01:33:32;;;;;;;14.13;5.82;;;;;;;14.30;73.53;101069.25;4949307;28;20022;-51
2021/07/30 01:35:57;;;;;;;13.15;6.35;;;;;;;14.26;73.93;101064.88;4952842;28;20027;-49
2021/07/30 01:38:22;;;;;;;13.32;6.60;;;;;;;14.22;74.10;101073.59;4951517;28;20027;-49
2021/07/30 01:40:48;;;;;;;13.20;5.50;;;;;;;14.24;74.04;101064.00;4951755;28;20027;-48
2021/07/30 01:43:13;;;;;;;15.80;6.28;;;;;;;14.26;73.80;101067.50;4955707;28;20042;-50
2021/07/30 01:45:38;;;;;;;11.60;6.25;;;;;;;14.27;74.08;101071.00;4952090;28;20030;-46
2021/07/30 01:48:04;;;;;;;16.25;6.10;;;;;;;14.26;74.40;101062.25;4954398;28;20030;-48
2021/07/30 01:50:29;;;;;;;10.52;5.45;;;;;;;14.25;74.23;101067.47;4955747;28;20110;-48
2021/07/30 01:52:55;;;;;;;13.20;5.82;;;;;;;14.26;74.19;101059.63;4950352;28;20031;-48
2021/07/30 01:55:20;;;;;;;14.32;6.32;;;;;;;14.26;74.08;101061.38;4957906;28;20027;-50
2021/07/30 01:57:45;;;;;;;16.83;5.97;;;;;;;14.24;74.34;101064.00;4953992;28;20106;-47
2021/07/30 02:00:11;;;;;;;11.82;5.75;;;;;;;14.26;74.46;101059.63;4957254;28;20035;-48
2021/07/30 02:02:36;;;;;;;11.75;5.53;;;;;;;14.24;74.54;101061.38;4952601;28;20530;-50
2021/07/30 02:05:02;;;;;;;11.90;5.45;;;;;;;14.20;74.50;101057.88;4956355;28;20841;-47
2021/07/30 02:07:28;;;;;;;13.60;4.97;;;;;;;14.14;74.68;101067.47;4951242;28;20035;-48
2021/07/30 02:09:54;;;;;;;14.20;6.10;;;;;;;14.11;74.97;101062.22;4956138;28;20053;-50
2021/07/30 02:12:20;;;;;;;15.35;6.65;;;;;;;14.05;75.38;101056.97;4950290;28;20037;-47
2021/07/30 02:14:45;;;;;;;11.25;5.40;;;;;;;13.98;75.54;101049.94;4953853;28;20043;-49
2021/07/30 02:17:11;;;;;;;11.15;5.38;;;;;;;13.97;75.58;101046.44;4955697;28;20553;-47
2021/07/30 02:19:36;;;;;;;15.63;5.68;;;;;;;13.94;75.38;101049.06;4950252;28;20058;-45
2021/07/30 02:22:01;;;;;;;14.30;5.28;;;;;;;13.96;75.67;101044.72;4955453;28;20097;-48
2021/07/30 02:24:27;;;;;;;13.45;5.38;;;;;;;13.93;75.71;101043.81;4956573;28;20031;-53
2021/07/30 02:26:53;;;;;;;10.52;4.85;;;;;;;13.92;75.68;101045.56;4951383;28;20997;-51
2021/07/30 02:29:19;;;;;;;15.52;5.00;;;;;;;13.91;75.76;101043.81;4952911;28;20482;-47
2021/07/30 02:31:44;;;;;;;10.65;5.53;;;;;;;13.92;75.94;101040.31;4953166;28;20045;-48
2021/07/30 02:34:10;;;;;;;14.57;5.75;;;;;;;13.89;76.08;101042.94;4958451;28;20034;-51
2021/07/30 02:36:36;;;;;;;16.77;6.50;;;;;;;13.89;75.96;101035.09;4953833;28;20342;-49
2021/07/30 02:39:02;;;;;;;13.70;5.90;;;;;;;13.91;76.04;101038.56;4957620;28;20031;-50
2021/07/30 02:41:28;;;;;;;11.45;5.38;;;;;;;13.92;75.99;101032.47;4961987;28;20026;-47
2021/07/30 02:43:53;;;;;;;11.02;5.47;;;;;;;13.92;75.92;101029.84;4958204;28;20377;-48
2021/07/30 02:46:19;;;;;;;18.55;6.72;;;;;;;13.96;76.00;101042.09;4952591;28;20576;-47
2021/07/30 02:48:45;;;;;;;16.13;6.18;;;;;;;13.99;75.84;101026.38;4953053;28;20045;-49
2021/07/30 02:51:11;;;;;;;11.82;5.30;;;;;;;14.02;75.75;101028.13;4962154;28;20022;-50
2021/07/30 02:53:38;;;;;;;12.75;5.97;;;;;;;14.04;75.85;101024.63;4954989;28;20042;-46
2021/07/30 02:56:04;;;;;;;14.73;6.03;;;;;;;14.05;75.98;101020.25;4954275;28;20038;-49
2021/07/30 02:58:30;;;;;;;12.93;5.15;;;;;;;14.05;75.71;101025.50;4959371;28;20031;-47
2021/07/30 03:00:56;;;;;;;14.55;5.45;;;;;;;14.04;75.74;101023.75;4956599;28;20027;-51
2021/07/30 03:03:21;;;;;;;14.35;5.55;;;;;;;14.14;75.35;101021.16;4959561;28;20075;-47
2021/07/30 03:05:47;;;;;;;11.95;5.95;;;;;;;14.17;75.31;101021.16;4957076;28;20058;-47
2021/07/30 03:08:12;;;;;;;13.02;6.30;;;;;;;14.14;75.16;101015.03;4957584;28;20227;-47
2021/07/30 03:10:37;;;;;;;15.00;6.00;;;;;;;14.11;75.37;101010.66;4957049;28;20026;-46
2021/07/30 03:13:03;;;;;;;17.55;6.53;;;;;;;14.09;75.48;101012.38;4957879;28;20062;-46
2021/07/30 03:15:28;;;;;;;17.35;6.65;;;;;;;14.09;76.18;101012.38;4961678;28;20023;-47
2021/07/30 03:17:54;;;;;;;17.63;6.45;;;;;;;14.02;76.16;101009.78;4954626;28;20567;-48
2021/07/30 03:20:19;;;;;;;14.20;5.72;;;;;;;14.02;76.07;101005.41;4955422;28;20026;-47
2021/07/30 03:22:45;;;;;;;14.88;5.55;;;;;;;14.07;76.12;101001.03;4958200;28;20489;-51
2021/07/30 03:25:11;;;;;;;13.48;5.82;;;;;;;14.03;76.27;101003.63;4959049;28;20042;-50
2021/07/30 03:27:36;;;;;;;15.18;6.20;;;;;;;13.94;76.82;101003.63;4952809;28;20038;-48
2021/07/30 03:30:02;;;;;;;16.52;6.95;;;;;;;14.04;76.61;101008.00;4952886;28;20562;-47
2021/07/30 03:32:27;;;;;;;13.07;6.15;;;;;;;13.99;76.91;101004.50;4960706;28;20034;-49
2021/07/30 03:34:53;;;;;;;17.67;6.35;;;;;;;14.01;76.81;100997.53;4955721;28;20041;-49
2021/07/30 03:37:18;;;;;;;14.60;6.50;;;;;;;13.97;77.35;101001.00;4952605;28;20027;-46
2021/07/30 03:39:43;;;;;;;16.15;6.63;;;;;;;14.01;76.66;101005.41;4957638;28;20042;-49
2021/07/30 03:42:09;;;;;;;14.68;6.35;;;;;;;13.99;76.74;101008.00;4957867;28;20019;-49
2021/07/30 03:44:35;;;;;;;14.50;6.80;;;;;;;14.05;76.95;101004.53;4953732;28;20423;-49
2021/07/30 03:47:01;;;;;;;14.40;6.43;;;;;;;14.09;76.70;101003.66;4956932;28;20031;-49
2021/07/30 03:49:26;;;;;;;16.35;6.38;;;;;;;14.22;76.00;101008.91;4959623;28;20573;-48
2021/07/30 03:51:51;;;;;;;18.73;6.68;;;;;;;14.27;76.41;101005.44;4956754;28;20022;-51
2021/07/30 03:54:19;;;;;;;13.18;5.50;;;;;;;14.23;76.70;101015.03;4959050;28;20285;-47
2021/07/30 03:56:44;;;;;;;18.45;6.80;;;;;;;14.33;76.50;101013.31;4955043;28;20037;-47
2021/07/30 03:59:13;;;;;;;18.67;6.72;;;;;;;14.34;76.08;101009.78;4971957;28;20031;-49
2021/07/30 04:01:47;;;;;;;13.43;5.70;;;;;;;14.39;75.72;101010.72;4956810;28;20023;-47
2021/07/30 04:04:12;;;;;;;14.35;6.72;;;;;;;14.45;75.95;101006.34;4959168;28;20038;-48
2021/07/30 04:06:37;;;;;;;18.75;6.65;;;;;;;14.52;75.91;101005.44;4953480;28;20274;-52
2021/07/30 04:09:03;;;;;;;19.08;7.03;;;;;;;14.59;76.05;100994.06;4954879;28;20513;-49
2021/07/30 04:11:28;;;;;;;18.48;7.30;;;;;;;14.62;75.36;100995.84;4955797;28;20037;-49
2021/07/30 04:13:53;;;;;;;18.08;6.43;;;;;;;14.65;75.36;100994.94;4953425;28;20489;-50
2021/07/30 04:16:19;;;;;;;15.85;6.18;;;;;;;14.71;75.25;100995.81;4955202;28;20030;-47
2021/07/30 04:18:44;;;;;;;15.27;6.57;;;;;;;14.73;75.67;100985.31;4952697;28;20093;-50
2021/07/30 04:21:09;;;;;;;16.92;6.75;;;;;;;14.77;75.54;100979.16;4955834;28;20035;-49
2021/07/30 04:23:36;;;;;;;20.30;7.13;;;;;;;14.80;75.40;100982.69;4958195;28;20483;-47
2021/07/30 04:26:01;;;;;;;15.38;6.82;;;;;;;14.98;75.02;100972.13;4956388;28;20049;-47
2021/07/30 04:28:27;;;;;;;18.00;7.40;;;;;;;15.03;74.53;100978.22;4955253;28;20291;-48
2021/07/30 04:30:52;;;;;;;19.65;7.53;;;;;;;15.12;74.97;100976.47;4973177;28;20379;-51
2021/07/30 04:33:18;;;;;;;16.45;6.80;;;;;;;15.11;75.13;100972.97;4951637;28;20087;-48
2021/07/30 04:35:44;;;;;;;18.67;7.40;;;;;;;15.13;74.55;100973.81;4954980;28;20069;-47
2021/07/30 04:38:09;;;;;;;19.30;7.20;;;;;;;15.19;75.01;100973.78;4957156;28;20057;-48
2021/07/30 04:40:37;;;;;;;20.08;7.55;;;;;;;15.27;74.88;100974.66;4956580;28;20035;-49
2021/07/30 04:43:02;;;;;;;16.55;7.05;;;;;;;15.32;74.63;100967.59;4954855;28;20081;-46
2021/07/30 04:45:27;;;;;;;17.75;7.18;;;;;;;15.29;75.05;100965.00;4957022;28;20030;-47
2021/07/30 04:47:53;;;;;;;22.50;7.60;;;;;;;15.19;75.53;100958.03;4955240;28;20027;-50
2021/07/30 04:50:18;;;;;;;17.85;7.30;;;;;;;15.27;74.79;100960.63;4953068;28;20046;-48
2021/07/30 04:52:44;;;;;;;17.52;7.60;;;;;;;15.30;74.72;100956.25;4970166;28;20046;-48
2021/07/30 04:55:09;;;;;;;18.05;7.43;;;;;;;15.44;73.91;100958.78;4957069;28;20092;-47
2021/07/30 04:57:35;;;;;;;18.48;7.43;;;;;;;15.45;74.18;100957.91;4954811;28;20916;-51
2021/07/30 05:00:02;;;;;;;17.98;7.45;;;;;;;15.41;75.00;100954.44;4951396;28;20035;-47
2021/07/30 05:02:28;;;;;;;17.70;7.72;;;;;;;15.50;74.50;100956.13;4957550;28;20050;-47
2021/07/30 05:04:54;;;;;;;15.18;7.57;;;;;;;15.56;74.02;100947.38;4955847;28;20030;-50
2021/07/30 05:07:23;;;;;;;15.85;7.60;;;;;;;15.58;73.90;100951.75;4945823;28;20595;-47
2021/07/30 05:09:48;;;;;;;18.35;7.28;;;;;;;15.67;73.74;100956.09;4954438;28;20577;-48
2021/07/30 05:12:14;;;;;;;18.65;7.35;;;;;;;15.74;73.73;100953.41;4973064;28;20034;-48
2021/07/30 05:14:39;;;;;;;17.92;7.53;;;;;;;15.83;73.18;100952.47;4952506;28;20033;-47
2021/07/30 05:17:05;;;;;;;16.50;7.75;;;;;;;15.90;73.06;100950.69;4954375;28;20044;-49
2021/07/30 05:19:30;;;;;;;18.10;6.93;;;;;;;16.02;72.73;100953.22;4957889;28;20283;-51
2021/07/30 05:21:55;;;;;;;17.02;6.93;;;;;;;16.03;72.46;100945.31;4965875;28;20090;-48
2021/07/30 05:24:21;;;;;;;16.17;7.07;;;;;;;16.18;71.62;100939.03;4956266;28;20494;-48
2021/07/30 05:26:46;;;;;;;16.75;7.47;;;;;;;16.26;72.26;100942.50;4952754;28;20050;-49
2021/07/30 05:29:11;;;;;;;15.30;7.25;;;;;;;16.33;71.33;100941.56;4954444;28;20557;-47
2021/07/30 05:31:37;;;;;;;16.65;7.22;;;;;;;16.47;71.44;100936.16;4952399;28;20029;-48
2021/07/30 05:34:02;;;;;;;19.02;6.93;;;;;;;16.62;70.94;100938.66;4956668;28;20023;-47
2021/07/30 05:36:28;;;;;;;14.35;6.80;;;;;;;16.63;70.68;100936.03;4953572;28;20027;-47
2021/07/30 05:38:53;;;;;;;16.02;7.32;;;;;;;16.75;70.72;100932.41;4957401;28;20031;-46
2021/07/30 05:41:19;;;;;;;15.80;6.88;;;;;;;16.86;68.72;100932.25;4950538;28;20027;-46
2021/07/30 05:43:46;;;;;;;14.55;7.13;;;;;;;16.98;69.41;100935.63;4951586;28;20101;-47
2021/07/30 05:46:18;;;;;;;16.60;7.07;;;;;;;17.15;68.93;100940.69;4955796;28;20654;-49
2021/07/30 05:48:44;;;;;;;15.57;6.80;;;;;;;17.21;67.97;100922.16;4968729;28;20046;-46
2021/07/30 05:51:10;;;;;;;18.60;6.80;;;;;;;17.41;66.87;100927.19;4955923;28;20460;-46
2021/07/30 05:53:36;;;;;;;16.30;6.90;;;;;;;17.52;67.09;100927.03;4954795;28;20124;-51
2021/07/30 05:56:02;;;;;;;14.68;6.40;;;;;;;17.62;66.68;100926.03;4949352;28;20031;-49
2021/07/30 05:58:27;;;;;;;18.17;7.00;;;;;;;17.70;64.27;100925.03;4955580;28;20042;-49
2021/07/30 06:00:52;;;;;;;13.13;5.82;;;;;;;17.80;64.04;100923.13;4950928;28;20054;-50
2021/07/30 06:03:18;;;;;;;13.65;6.25;;;;;;;17.70;64.56;100922.38;4956292;28;20921;-51
2021/07/30 06:05:43;;;;;;;15.38;6.28;;;;;;;17.76;63.75;100924.06;4950143;28;20041;-46
2021/07/30 06:08:08;;;;;;;16.83;5.97;;;;;;;17.94;64.75;100915.84;4974863;28;20034;-48
2021/07/30 06:10:34;;;;;;;14.73;6.03;;;;;;;18.00;64.89;100914.88;4956119;28;20334;-47
2021/07/30 06:12:59;;;;;;;14.65;6.03;;;;;;;17.98;63.24;100914.06;4958930;28;20037;-47
2021/07/30 06:15:25;;;;;;;11.77;5.90;;;;;;;18.33;64.34;100927.53;4958581;28;20037;-47
2021/07/30 06:17:51;;;;;;;14.02;6.25;;;;;;;18.24;63.14;100927.66;4955383;28;20062;-50
2021/07/30 06:20:16;;;;;;;12.07;5.70;;;;;;;18.32;63.02;100920.50;4958411;28;20035;-47
2021/07/30 06:22:42;;;;;;;14.15;5.72;;;;;;;18.30;60.27;100914.34;4954664;28;20862;-48
2021/07/30 06:25:07;;;;;;;13.73;5.57;;;;;;;18.33;60.42;100909.03;4959226;28;20514;-50
2021/07/30 06:27:36;;;;;;;12.43;5.40;;;;;;;18.50;61.36;100908.72;4955729;28;20092;-46
2021/07/30 06:30:07;;;;;;;11.20;5.60;;;;;;;18.63;62.98;100900.59;4959467;28;20085;-47
2021/07/30 06:32:32;;;;;;;12.95;5.45;;;;;;;18.83;61.96;100902.84;4958860;28;20093;-49
2021/07/30 06:34:57;;;;;;;14.57;5.82;;;;;;;18.93;62.33;100895.59;4958873;28;20534;-48
2021/07/30 06:37:23;;;;;;;12.70;5.40;;;;;;;19.12;61.98;100888.16;4952743;28;20649;-46
2021/07/30 06:39:48;;;;;;;10.30;4.95;;;;;;;19.26;58.99;100899.31;4958688;28;20035;-48
2021/07/30 06:42:14;;;;;;;14.50;5.63;;;;;;;19.37;61.98;100890.22;4959279;28;21139;-49
2021/07/30 06:44:45;;;;;;;12.38;5.10;;;;;;;19.57;58.60;100888.94;4959031;28;20090;-49
2021/07/30 06:47:10;;;;;;;14.90;5.20;;;;;;;19.63;57.79;100888.81;4956159;28;20106;-50
2021/07/30 06:49:39;;;;;;;12.18;4.65;;;;;;;19.68;57.21;100887.78;4960806;28;20037;-47
2021/07/30 06:52:14;;;;;;;11.93;5.35;;;;;;;19.75;59.58;100893.81;4957398;28;20026;-46
2021/07/30 06:54:41;;;;;;;11.48;5.20;;;;;;;20.04;57.74;100890.44;4972198;28;20123;-48
2021/07/30 06:57:06;;;;;;;10.63;4.93;;;;;;;20.17;59.20;100886.56;4958052;28;20019;-48
2021/07/30 06:59:32;;;;;;;16.67;4.80;;;;;;;20.19;56.94;100885.59;4956970;28;20375;-46
2021/07/30 07:01:57;;;;;;;15.18;4.97;;;;;;;20.18;55.15;100883.03;4959125;28;20034;-48
2021/07/30 07:04:22;;;;;;;14.07;4.80;;;;;;;20.30;57.02;100874.75;4973582;28;20133;-47
2021/07/30 07:06:48;;;;;;;13.27;4.68;;;;;;;20.45;55.09;100863.78;4958872;28;20379;-50
2021/07/30 07:09:17;;;;;;;12.20;4.80;;;;;;;20.69;56.70;100878.13;4955463;28;20025;-51
2021/07/30 07:11:43;;;;;;;11.20;4.88;;;;;;;20.46;55.53;100868.16;4959149;28;20031;-46
2021/07/30 07:14:08;;;;;;;12.00;4.90;;;;;;;20.10;55.26;100869.97;4958456;28;20489;-47
2021/07/30 07:16:33;;;;;;;13.05;4.82;;;;;;;20.12;55.08;100870.81;4956591;28;20030;-47
2021/07/30 07:18:59;;;;;;;11.98;5.05;;;;;;;20.15;54.75;100870.72;4957102;28;20102;-46
2021/07/30 07:21:24;;;;;;;8.70;4.68;;;;;;;20.08;59.55;100868.25;4956014;28;20027;-48
2021/07/30 07:23:51;;;;;;;12.75;5.00;;;;;;;20.19;54.75;100853.84;4954892;28;20054;-50
2021/07/30 07:26:17;;;;;;;12.02;4.93;;;;;;;20.06;55.05;100852.44;4957714;28;20418;-48
2021/07/30 07:28:43;;;;;;;10.82;5.30;;;;;;;20.59;54.29;100845.72;4937860;28;20030;-47
2021/07/30 07:31:09;;;;;;;16.33;5.60;;;;;;;20.74;53.81;100843.56;4953991;28;20031;-49
2021/07/30 07:33:34;;;;;;;13.20;5.35;;;;;;;20.99;52.96;100841.91;4957103;28;20038;-49
2021/07/30 07:36:00;;;;;;;11.18;5.18;;;;;;;21.17;50.76;100835.22;4953220;28;20085;-47
2021/07/30 07:38:25;;;;;;;10.35;5.07;;;;;;;21.28;51.89;100844.59;4958675;28;20033;-50
2021/07/30 07:40:51;;;;;;;17.88;5.25;;;;;;;21.26;52.28;100841.13;4956261;28;20492;-47
2021/07/30 07:43:16;;;;;;;12.48;4.75;;;;;;;21.32;52.22;100829.44;4959611;28;20039;-50
2021/07/30 07:45:42;;;;;;;14.30;5.05;;;;;;;21.58;52.73;100829.50;4959795;28;20030;-50
2021/07/30 07:48:07;;;;;;;12.15;5.18;;;;;;;21.92;51.41;100823.03;4955148;28;20030;-48
2021/07/30 07:50:33;;;;;;;12.30;4.72;;;;;;;22.15;51.96;100831.97;4953632;28;20090;-51
2021/07/30 07:52:58;;;;;;;9.88;4.85;;;;;;;22.38;48.97;100823.22;4957134;28;20483;-46
2021/07/30 07:55:23;;;;;;;13.35;5.50;;;;;;;21.71;52.11;100814.03;4950598;28;20034;-48
2021/07/30 07:57:49;;;;;;;15.45;5.30;;;;;;;21.88;51.76;100824.06;4953473;28;20039;-49
2021/07/30 08:00:14;;;;;;;13.45;5.60;;;;;;;22.09;50.60;100815.38;4971102;28;20122;-50
2021/07/30 08:02:40;;;;;;;14.27;4.82;;;;;;;22.31;51.81;100816.38;4960606;28;20031;-48
2021/07/30 08:05:05;;;;;;;13.90;4.47;;;;;;;22.25;52.33;100816.59;4951107;28;20031;-50
2021/07/30 08:07:31;;;;;;;11.98;5.28;;;;;;;21.63;53.69;100810.75;4941432;28;20050;-48
2021/07/30 08:09:56;;;;;;;12.82;4.90;;;;;;;21.77;53.27;100821.78;4957149;28;20450;-51
2021/07/30 08:12:21;;;;;;;11.73;4.57;;;;;;;22.01;52.32;100815.69;4957167;28;20014;-47
2021/07/30 08:14:47;;;;;;;15.13;4.50;;;;;;;22.05;55.17;100817.31;4953359;28;20055;-49
2021/07/30 08:17:14;;;;;;;10.82;4.50;;;;;;;22.01;52.14;100820.13;4953451;28;20181;-47
2021/07/30 08:19:40;;;;;;;15.48;4.53;;;;;;;22.83;49.28;100811.81;4958780;28;20015;-50
2021/07/30 08:22:05;;;;;;;11.07;4.30;;;;;;;23.69;49.84;100802.19;4964327;28;20066;-47
2021/07/30 08:24:31;;;;;;;12.43;4.20;;;;;;;24.51;48.11;100793.31;4955510;28;20031;-47
2021/07/30 08:26:56;;;;;;;10.80;3.90;;;;;;;24.61;45.29;100795.47;4955267;28;20074;-48
2021/07/30 08:29:22;;;;;;;11.35;3.75;;;;;;;24.17;46.15;100794.75;4956256;28;20034;-48
2021/07/30 08:31:48;;;;;;;7.15;3.20;;;;;;;24.24;46.18;100795.38;4953177;28;20038;-48
2021/07/30 08:34:15;;;;;;;9.65;3.60;;;;;;;23.86;46.59;100797.00;4955769;28;20051;-47
2021/07/30 08:36:42;;;;;;;10.90;3.65;;;;;;;23.74;48.70;100787.75;4952742;28;20037;-48
2021/07/30 08:39:07;;;;;;;10.85;3.83;;;;;;;23.48;48.45;100801.31;4964271;28;20124;-46
2021/07/30 08:41:34;;;;;;;8.10;3.75;;;;;;;23.35;50.21;100787.59;4956350;28;20121;-47
2021/07/30 08:43:59;;;;;;;10.23;3.72;;;;;;;23.39;47.78;100791.84;4951815;28;20083;-50
2021/07/30 08:46:26;;;;;;;8.02;3.40;;;;;;;23.38;48.99;100784.78;4953725;28;20030;-47
2021/07/30 08:48:52;;;;;;;9.07;3.67;;;;;;;23.39;50.70;100785.66;4951964;28;20026;-49
2021/07/30 08:51:19;;;;;;;9.75;3.85;;;;;;;23.29;50.34;100782.53;4955868;28;20023;-46
2021/07/30 08:53:46;;;;;;;7.57;3.65;;;;;;;23.29;50.75;100771.88;4954458;28;20514;-49
2021/07/30 08:56:12;;;;;;;9.88;3.97;;;;;;;23.17;47.65;100768.84;4950704;28;20082;-47
2021/07/30 08:58:37;;;;;;;9.30;4.00;;;;;;;23.19;50.78;100761.66;4951618;28;20126;-50
2021/07/30 09:01:03;;;;;;;8.55;3.78;;;;;;;23.33;49.61;100762.84;4956354;28;20022;-51
2021/07/30 09:03:42;;;;;;;9.05;4.15;;;;;;;23.62;48.78;100751.00;4955373;28;20401;-47
2021/07/30 09:06:36;;;;;;;11.50;3.50;;;;;;;23.48;47.17;100758.72;4954030;28;20114;-47
2021/07/30 09:09:02;;;;;;;9.50;3.40;;;;;;;23.53;50.10;100754.06;4957228;28;20122;-51
2021/07/30 09:11:28;;;;;;;8.23;3.20;;;;;;;23.48;47.33;100750.75;4952544;28;20170;-49
2021/07/30 09:13:55;;;;;;;9.05;3.55;;;;;;;23.27;52.92;100749.78;4959904;28;20034;-50
2021/07/30 09:16:20;;;;;;;11.18;3.20;;;;;;;23.31;50.57;100746.06;4952670;28;20717;-46
2021/07/30 09:18:46;;;;;;;9.38;3.30;;;;;;;23.41;48.12;100744.78;4951993;28;20549;-47
2021/07/30 09:21:33;;;;;;;6.38;3.03;;;;;;;23.37;46.57;100748.47;4957353;28;20037;-47
2021/07/30 09:24:04;;;;;;;6.25;3.17;;;;;;;23.31;49.70;100743.41;4953000;28;20101;-49
2021/07/30 09:26:31;;;;;;;8.68;3.45;;;;;;;23.30;48.37;100746.13;4953350;28;20054;-51
2021/07/30 09:29:00;;;;;;;9.43;3.30;;;;;;;23.20;49.46;100742.97;4953162;28;20042;-50
2021/07/30 09:31:35;;;;;;;5.35;3.35;;;;;;;23.18;50.13;100733.31;4971951;28;20378;-49
2021/07/30 09:34:36;;;;;;;13.75;3.90;;;;;;;23.37;48.32;100729.84;4950237;28;20045;-48
2021/07/30 09:37:08;;;;;;;9.27;3.55;;;;;;;23.37;48.01;100736.97;4955556;28;20062;-48
2021/07/30 09:39:33;;;;;;;9.50;3.92;;;;;;;23.34;48.23;100737.09;4949130;28;20279;-48
2021/07/30 09:42:04;;;;;;;8.60;3.67;;;;;;;23.43;48.38;100732.25;4954632;28;20152;-48
2021/07/30 09:44:31;;;;;;;9.88;3.83;;;;;;;23.23;51.07;100731.38;4946522;28;20305;-46
2021/07/30 09:47:20;;;;;;;5.85;3.63;;;;;;;23.18;50.19;100728.88;4951339;28;20033;-49
2021/07/30 09:49:54;;;;;;;6.55;3.25;;;;;;;23.10;51.01;100730.13;4958074;28;20046;-50
2021/07/30 09:52:40;;;;;;;6.47;3.60;;;;;;;22.39;50.83;100721.34;4952046;28;20502;-48
2021/07/30 09:55:11;;;;;;;8.77;3.60;;;;;;;22.43;51.27;100722.97;4951750;28;20045;-47
2021/07/30 09:57:37;;;;;;;8.43;3.90;;;;;;;22.51;51.14;100714.69;4952115;28;20041;-46
2021/07/30 10:00:10;;;;;;;8.02;3.60;;;;;;;22.87;50.86;100707.97;4952718;28;20475;-46
2021/07/30 10:02:37;;;;;;;6.63;3.40;;;;;;;23.24;50.05;100702.03;4952930;28;20043;-46
2021/07/30 10:05:07;;;;;;;8.25;3.90;;;;;;;23.63;50.07;100712.81;4953476;28;20139;-47
2021/07/30 10:07:33;;;;;;;6.50;3.28;;;;;;;23.89;50.46;100710.81;4950515;28;20126;-48
2021/07/30 10:10:13;;;;;;;7.93;3.72;;;;;;;23.83;48.37;100706.63;4953700;28;20031;-48
2021/07/30 10:12:43;;;;;;;10.52;3.80;;;;;;;24.03;47.01;100711.94;4955702;28;20362;-48
2021/07/30 10:15:09;;;;;;;10.95;3.75;;;;;;;24.06;48.65;100695.81;4953395;28;20026;-47
2021/07/30 10:17:36;;;;;;;10.35;3.70;;;;;;;24.23;47.73;100697.75;4950848;28;20507;-49
2021/07/30 10:20:06;;;;;;;12.90;4.25;;;;;;;24.32;48.23;100696.47;4951450;28;20130;-51
2021/07/30 10:22:40;;;;;;;7.22;4.00;;;;;;;24.42;47.50;100697.75;4949992;28;20372;-49
2021/07/30 10:25:05;;;;;;;;;;;;;;;24.18;48.09;100691.75;4956608;28;20047;-49
2021/07/30 10:27:31;;;;;;;7.38;4.05;;;;;;;24.17;47.29;100684.69;4953065;28;19918;-48
2021/07/30 10:30:23;;;;;;;8.50;3.72;;;;;;;24.05;49.02;100682.56;4951486;28;20479;-49
2021/07/30 10:32:56;;;;;;;6.35;3.50;;;;;;;23.98;50.43;100683.78;4953784;28;20129;-49
2021/07/30 10:35:28;;;;;;;;;;;;;;;23.63;50.47;100695.97;4952805;28;20031;-46
2021/07/30 10:38:19;;;;;;;7.78;3.30;;;;;;;23.19;51.56;100689.84;4948946;28;19922;-51
2021/07/30 10:41:07;;;;;;;7.32;3.70;;;;;;;22.48;52.05;100690.91;4954401;28;20149;-47
2021/07/30 10:44:01;;;;;;;9.43;3.70;;;;;;;22.30;51.55;100694.25;4950365;28;20262;-49
2021/07/30 10:46:27;;;;;;;8.20;3.60;;;;;;;21.93;52.77;100692.94;4945628;28;20101;-46
2021/07/30 10:48:55;;;;;;;7.72;3.90;;;;;;;21.83;53.11;100691.53;4954637;28;20467;-48
2021/07/30 10:51:30;;;;;;;5.68;3.78;;;;;;;21.80;53.24;100688.97;4948449;28;20334;-51
2021/07/30 10:54:02;;;;;;;8.00;3.50;;;;;;;21.75;54.23;100697.13;4958723;28;20105;-46
2021/07/30 10:56:27;;;;;;;8.68;4.30;;;;;;;21.61;55.74;100693.19;4973331;28;20039;-49
2021/07/30 10:58:53;;;;;;;7.03;4.07;;;;;;;21.63;53.49;100678.09;4951542;28;21037;-50
2021/07/30 11:01:42;;;;;;;7.28;3.78;;;;;;;21.71;54.08;100691.97;4957421;28;20039;-48
2021/07/30 11:04:08;;;;;;;7.03;3.92;;;;;;;21.71;55.25;100687.50;4956659;28;20527;-52
2021/07/30 11:06:39;;;;;;;5.32;3.90;;;;;;;21.82;54.90;100689.81;4958405;28;20062;-52
2021/07/30 11:09:04;;;;;;;6.90;4.10;;;;;;;21.83;54.61;100687.06;4958860;28;20015;-50
2021/07/30 11:11:43;;;;;;;10.10;4.05;;;;;;;21.81;55.05;100680.09;4956033;28;20101;-49
2021/07/30 11:14:34;;;;;;;7.35;4.15;;;;;;;21.80;55.19;100678.38;4974459;28;20081;-50
2021/07/30 11:17:01;;;;;;;10.88;4.50;;;;;;;21.73;54.65;100682.16;4952217;28;20110;-49
2021/07/30 11:19:27;;;;;;;8.10;4.30;;;;;;;21.62;55.52;100679.03;4956141;28;20081;-51